地図

経路データ

SID SEASON NUMBER BASIN SUBBASIN NAME ISO_TIME NATURE LAT LON WMO_WIND WMO_PRES WMO_AGENCY TRACK_TYPE DIST2LAND LANDFALL IFLAG USA_AGENCY USA_ATCF_ID USA_LAT USA_LON USA_RECORD USA_STATUS USA_WIND USA_PRES USA_SSHS USA_R34_NE USA_R34_SE USA_R34_SW USA_R34_NW USA_R50_NE USA_R50_SE USA_R50_SW USA_R50_NW USA_R64_NE USA_R64_SE USA_R64_SW USA_R64_NW USA_POCI USA_ROCI USA_RMW USA_EYE TOKYO_LAT TOKYO_LON TOKYO_GRADE TOKYO_WIND TOKYO_PRES TOKYO_R50_DIR TOKYO_R50_LONG TOKYO_R50_SHORT TOKYO_R30_DIR TOKYO_R30_LONG TOKYO_R30_SHORT TOKYO_LAND CMA_LAT CMA_LON CMA_CAT CMA_WIND CMA_PRES HKO_LAT HKO_LON HKO_CAT HKO_WIND HKO_PRES NEWDELHI_LAT NEWDELHI_LON NEWDELHI_GRADE NEWDELHI_WIND NEWDELHI_PRES NEWDELHI_CI NEWDELHI_DP NEWDELHI_POCI REUNION_LAT REUNION_LON REUNION_TYPE REUNION_WIND REUNION_PRES REUNION_TNUM REUNION_CI REUNION_RMW REUNION_R34_NE REUNION_R34_SE REUNION_R34_SW REUNION_R34_NW REUNION_R50_NE REUNION_R50_SE REUNION_R50_SW REUNION_R50_NW REUNION_R64_NE REUNION_R64_SE REUNION_R64_SW REUNION_R64_NW BOM_LAT BOM_LON BOM_TYPE BOM_WIND BOM_PRES BOM_TNUM BOM_CI BOM_RMW BOM_R34_NE BOM_R34_SE BOM_R34_SW BOM_R34_NW BOM_R50_NE BOM_R50_SE BOM_R50_SW BOM_R50_NW BOM_R64_NE BOM_R64_SE BOM_R64_SW BOM_R64_NW BOM_ROCI BOM_POCI BOM_EYE BOM_POS_METHOD BOM_PRES_METHOD NADI_LAT NADI_LON NADI_CAT NADI_WIND NADI_PRES WELLINGTON_LAT WELLINGTON_LON WELLINGTON_WIND WELLINGTON_PRES DS824_LAT DS824_LON DS824_STAGE DS824_WIND DS824_PRES TD9636_LAT TD9636_LON TD9636_STAGE TD9636_WIND TD9636_PRES TD9635_LAT TD9635_LON TD9635_WIND TD9635_PRES TD9635_ROCI NEUMANN_LAT NEUMANN_LON NEUMANN_CLASS NEUMANN_WIND NEUMANN_PRES MLC_LAT MLC_LON MLC_CLASS MLC_WIND MLC_PRES USA_GUST BOM_GUST BOM_GUST_PER REUNION_GUST REUNION_GUST_PER USA_SEAHGT USA_SEARAD_NE USA_SEARAD_SE USA_SEARAD_SW USA_SEARAD_NW STORM_SPEED STORM_DIR
1899266N25133 1899 35 WP MM NOT_NAMED 1899-09-22 16:00:00 NR 25.1000 133.200 main 702 696 __________O___ -1 25.1000 133.200 7 4 278
1899266N25133 1899 35 WP MM NOT_NAMED 1899-09-22 18:00:00 NR 25.1190 133.044 main 696 690 __________P___ -1 25.1190 133.044 7 4 277
1899266N25133 1899 35 WP MM NOT_NAMED 1899-09-22 21:00:00 NR 25.1464 132.806 main 690 673 __________P___ -1 25.1464 132.806 7 4 277
1899266N25133 1899 35 WP MM NOT_NAMED 1899-09-23 00:00:00 NR 25.1716 132.558 main 673 666 __________P___ -1 25.1716 132.558 7 5 276
1899266N25133 1899 35 WP MM NOT_NAMED 1899-09-23 03:00:00 NR 25.1936 132.293 main 666 664 __________P___ -1 25.1936 132.293 7 5 275
1899266N25133 1899 35 WP MM NOT_NAMED 1899-09-23 04:00:00 NR 25.2000 132.200 main 664 659 __________O___ -1 25.2000 132.200 7 5 274
1899266N25133 1899 35 WP MM NOT_NAMED 1899-09-23 06:00:00 NR 25.2110 132.006 main 659 654 __________P___ -1 25.2110 132.006 7 5 273
1899266N25133 1899 35 WP MM NOT_NAMED 1899-09-23 09:00:00 NR 25.2213 131.703 main 654 651 __________P___ -1 25.2213 131.703 7 6 271
1899266N25133 1899 35 WP MM NOT_NAMED 1899-09-23 12:00:00 NR 25.2213 131.395 main 651 648 __________P___ -1 25.2213 131.395 7 5 269
1899266N25133 1899 35 WP MM NOT_NAMED 1899-09-23 15:00:00 NR 25.2080 131.096 main 648 648 __________P___ -1 25.2080 131.096 7 5 267
1899266N25133 1899 35 WP MM NOT_NAMED 1899-09-23 16:00:00 NR 25.2000 131.000 main 648 647 __________O___ -1 25.2000 131.000 7 5 263
1899266N25133 1899 35 WP MM NOT_NAMED 1899-09-23 18:00:00 NR 25.1803 130.835 main 647 647 __________P___ -1 25.1803 130.835 7 4 260
1899266N25133 1899 35 WP MM NOT_NAMED 1899-09-23 21:00:00 NR 25.1385 130.601 main 658 658 __________P___ -1 25.1385 130.601 7 4 257
1899266N25133 1899 35 WP MM NOT_NAMED 1899-09-24 00:00:00 NR 25.0847 130.362 main 659 659 __________P___ -1 25.0847 130.362 7 5 256
1899266N25133 1899 35 WP MM NOT_NAMED 1899-09-24 03:00:00 NR 25.0222 130.098 main 672 672 __________P___ -1 25.0222 130.098 7 5 256
1899266N25133 1899 35 WP MM NOT_NAMED 1899-09-24 04:00:00 NR 25.0000 130.000 main 673 673 __________O___ -1 25.0000 130.000 3 6 258
1899266N25133 1899 35 WP MM NOT_NAMED 1899-09-24 06:00:00 NR 24.9611 129.776 main 675 675 __________P___ -1 24.9611 129.776 3 7 259
1899266N25133 1899 35 WP MM NOT_NAMED 1899-09-24 09:00:00 NR 24.8964 129.408 main 692 692 __________P___ -1 24.8964 129.408 3 7 258
1899266N25133 1899 35 WP MM NOT_NAMED 1899-09-24 12:00:00 NR 24.8214 129.019 main 705 666 __________P___ -1 24.8214 129.019 3 7 257
1899266N25133 1899 35 WP MM NOT_NAMED 1899-09-24 15:00:00 NR 24.7330 128.628 main 666 656 __________P___ -1 24.7330 128.628 3 7 256
1899266N25133 1899 35 WP MM NOT_NAMED 1899-09-24 16:00:00 NR 24.7000 128.500 main 656 636 __________O___ -1 24.7000 128.500 4 7 253
1899266N25133 1899 35 WP MM NOT_NAMED 1899-09-24 18:00:00 NR 24.6279 128.256 main 637 597 __________P___ -1 24.6279 128.256 4 7 251
1899266N25133 1899 35 WP MM NOT_NAMED 1899-09-24 21:00:00 NR 24.5074 127.895 main 597 559 __________P___ -1 24.5074 127.895 4 7 249
1899266N25133 1899 35 WP MM NOT_NAMED 1899-09-25 00:00:00 NR 24.3773 127.545 main 559 530 __________P___ -1 24.3773 127.545 4 7 247
1899266N25133 1899 35 WP MM NOT_NAMED 1899-09-25 03:00:00 NR 24.2441 127.209 main 532 522 __________P___ -1 24.2441 127.209 4 7 246
1899266N25133 1899 35 WP MM NOT_NAMED 1899-09-25 04:00:00 NR 24.2000 127.100 main 522 505 __________O___ -1 24.2000 127.100 4 6 247
1899266N25133 1899 35 WP MM NOT_NAMED 1899-09-25 06:00:00 NR 24.1190 126.894 main 505 478 __________P___ -1 24.1190 126.894 4 6 246
1899266N25133 1899 35 WP MM NOT_NAMED 1899-09-25 09:00:00 NR 23.9977 126.598 main 478 450 __________P___ -1 23.9977 126.598 4 6 246
1899266N25133 1899 35 WP MM NOT_NAMED 1899-09-25 12:00:00 NR 23.8740 126.305 main 450 423 __________P___ -1 23.8740 126.305 4 6 245
1899266N25133 1899 35 WP MM NOT_NAMED 1899-09-25 15:00:00 NR 23.7449 126.004 main 425 415 __________P___ -1 23.7449 126.004 4 6 245
1899266N25133 1899 35 WP MM NOT_NAMED 1899-09-25 16:00:00 NR 23.7000 125.900 main 415 398 __________O___ -1 23.7000 125.900 4 6 246
1899266N25133 1899 35 WP MM NOT_NAMED 1899-09-25 18:00:00 NR 23.6134 125.686 main 398 372 __________P___ -1 23.6134 125.686 4 7 246
1899266N25133 1899 35 WP MM NOT_NAMED 1899-09-25 21:00:00 NR 23.4774 125.353 main 372 342 __________P___ -1 23.4774 125.353 4 7 246
1899266N25133 1899 35 WP MM NOT_NAMED 1899-09-26 00:00:00 NR 23.3287 125.002 main 342 310 __________P___ -1 23.3287 125.002 4 7 245
1899266N25133 1899 35 WP MM NOT_NAMED 1899-09-26 03:00:00 NR 23.1611 124.629 main 310 307 __________P___ -1 23.1611 124.629 4 8 244
1899266N25133 1899 35 WP MM NOT_NAMED 1899-09-26 04:00:00 NR 23.1000 124.500 main 307 286 __________O___ -1 23.1000 124.500 4 8 242
1899266N25133 1899 35 WP MM NOT_NAMED 1899-09-26 06:00:00 NR 22.9697 124.231 main 286 247 __________P___ -1 22.9697 124.231 4 9 242
1899266N25133 1899 35 WP MM NOT_NAMED 1899-09-26 09:00:00 NR 22.7555 123.809 main 247 212 __________P___ -1 22.7555 123.809 4 9 241
1899266N25133 1899 35 WP MM NOT_NAMED 1899-09-26 12:00:00 NR 22.5242 123.375 main 215 177 __________P___ -1 22.5242 123.375 4 9 239
1899266N25133 1899 35 WP MM NOT_NAMED 1899-09-26 15:00:00 NR 22.2820 122.942 main 177 175 __________P___ -1 22.2820 122.942 4 9 239
1899266N25133 1899 35 WP MM NOT_NAMED 1899-09-26 16:00:00 NR 22.2000 122.800 main 175 164 __________O___ -1 22.2000 122.800 4 9 238
1899266N25133 1899 35 WP MM NOT_NAMED 1899-09-26 18:00:00 NR 22.0352 122.521 main 164 124 __________P___ -1 22.0352 122.521 4 9 237
1899266N25133 1899 35 WP MM NOT_NAMED 1899-09-26 21:00:00 NR 21.7863 122.115 main 124 93 __________P___ -1 21.7863 122.115 4 9 236
1899266N25133 1899 35 WP MM NOT_NAMED 1899-09-27 00:00:00 NR 21.5359 121.719 main 93 76 __________P___ -1 21.5359 121.719 4 9 235
1899266N25133 1899 35 WP MM NOT_NAMED 1899-09-27 03:00:00 NR 21.2841 121.329 main 78 78 __________P___ -1 21.2841 121.329 4 9 235
1899266N25133 1899 35 WP MM NOT_NAMED 1899-09-27 04:00:00 NR 21.2000 121.200 main 84 __________O___ -1 21.2000 121.200 4 9 235

デジタル台風データ・検索

IBTrACS Databaseについて

本データベースは、米国NOAAが公開する1842年以降の世界の熱帯低気圧のベストトラックデータアーカイブInternational Best Track Archive for Climate Stewardship (IBTrACS)を、ウェブで閲覧しやすい形式に変換したものです。

最終更新日:2021-12-03